Time;durP1;ratioP1;P1;durP2;ratioP2;P2;SDS_P1;SDS_P2;PMS_P1;PMS_P2;Temp;Humidity;BMP_temperature;BMP_pressure;BME280_temperature;BME280_humidity;BME280_pressure;Samples;Min_cycle;Max_cycle;Signal;HPM_P1;HPM_P2
2022/08/13 00:01:15;;;;;;;3.55;2.05;;;19.70;99.90;;;;;;5011409;28;20501;-74
2022/08/13 00:03:42;;;;;;;2.33;2.13;;;19.60;99.90;;;;;;4994029;28;20033;-74
2022/08/13 00:06:10;;;;;;;6.82;2.40;;;19.60;99.90;;;;;;5010424;28;20022;-74
2022/08/13 00:08:38;;;;;;;2.33;2.13;;;19.50;99.90;;;;;;5011620;28;20033;-74
2022/08/13 00:11:05;;;;;;;2.63;2.00;;;19.50;99.90;;;;;;4994043;28;20121;-74
2022/08/13 00:13:31;;;;;;;3.28;2.28;;;19.50;99.90;;;;;;4993917;28;20029;-74
2022/08/13 00:15:59;;;;;;;4.75;2.25;;;19.40;99.90;;;;;;4993997;28;20084;-74
2022/08/13 00:18:25;;;;;;;3.60;2.05;;;19.30;99.90;;;;;;5011414;28;20489;-74
2022/08/13 00:20:54;;;;;;;2.63;2.03;;;19.30;99.90;;;;;;4993049;28;20051;-74
2022/08/13 00:23:20;;;;;;;3.85;2.10;;;19.30;99.90;;;;;;4994115;28;20460;-74
2022/08/13 00:25:48;;;;;;;;;;;19.20;99.90;;;;;;4994491;28;20046;-74
2022/08/13 00:28:19;;;;;;;2.42;2.20;;;19.20;99.90;;;;;;4993736;28;19932;-74
2022/08/13 00:30:46;;;;;;;2.60;2.10;;;19.20;99.90;;;;;;4994157;28;20073;-74
2022/08/13 00:33:17;;;;;;;2.72;2.40;;;19.20;99.90;;;;;;5010248;28;20030;-75
2022/08/13 00:35:45;;;;;;;2.42;2.10;;;;;;;;;;5011114;28;20661;-74
2022/08/13 00:38:13;;;;;;;2.65;2.05;;;19.10;99.90;;;;;;5010954;28;20049;-74
2022/08/13 00:40:43;;;;;;;4.13;2.08;;;19.10;99.90;;;;;;5011355;28;20018;-74
2022/08/13 00:43:12;;;;;;;3.25;2.05;;;19.00;99.90;;;;;;4993465;28;20649;-74
2022/08/13 00:45:38;;;;;;;6.00;2.20;;;19.00;99.90;;;;;;5011286;28;20026;-75
2022/08/13 00:50:50;;;;;;;3.40;2.30;;;18.90;99.90;;;;;;4995986;28;20557;-74
2022/08/13 00:53:17;;;;;;;2.33;2.13;;;18.90;99.90;;;;;;4993584;28;20446;-75
2022/08/13 00:55:49;;;;;;;2.67;2.00;;;18.80;99.90;;;;;;5011189;28;20105;-74
2022/08/13 00:58:17;;;;;;;3.08;2.33;;;18.80;99.90;;;;;;4993371;28;20014;-74
2022/08/13 01:00:47;;;;;;;1.85;1.75;;;18.80;99.90;;;;;;5010970;28;20146;-74
2022/08/13 01:03:14;;;;;;;4.28;2.10;;;18.70;99.90;;;;;;4993315;28;20434;-74
2022/08/13 01:05:43;;;;;;;2.38;2.17;;;18.70;99.90;;;;;;5010933;28;20066;-74
2022/08/13 01:08:09;;;;;;;2.42;1.80;;;18.70;99.90;;;;;;4993547;28;20041;-74
2022/08/13 01:10:36;;;;;;;2.72;1.98;;;18.70;99.90;;;;;;4996615;28;20056;-74
2022/08/13 01:13:03;;;;;;;2.53;2.03;;;;;;;;;;4996942;28;20034;-74
2022/08/13 01:15:29;;;;;;;2.78;2.25;;;;;;;;;;5014509;28;20021;-74
2022/08/13 01:17:57;;;;;;;4.30;2.45;;;;;;;;;;4996902;28;20033;-74
2022/08/13 01:20:26;;;;;;;2.45;2.15;;;;;;;;;;4996253;28;20666;-74
2022/08/13 01:22:52;;;;;;;4.72;2.53;;;;;;;;;;4997314;28;20038;-74
2022/08/13 01:25:21;;;;;;;4.07;2.33;;;;;;;;;;5014522;28;20117;-74
2022/08/13 01:27:49;;;;;;;4.97;2.47;;;;;;;;;;4997237;28;20034;-75
2022/08/13 01:30:16;;;;;;;3.00;2.30;;;;;;;;;;5014300;28;20026;-75
2022/08/13 01:32:43;;;;;;;6.60;2.70;;;;;;;;;;5014388;28;20037;-75
2022/08/13 01:35:09;;;;;;;;;;;;;;;;;;5014459;28;20030;-74
2022/08/13 01:37:39;;;;;;;2.90;2.40;;;;;;;;;;4996810;28;19917;-74
2022/08/13 01:40:06;;;;;;;4.38;2.88;;;;;;;;;;5014226;28;20053;-75
2022/08/13 01:42:42;;;;;;;3.28;2.90;;;;;;;;;;5014099;28;20053;-74
2022/08/13 01:45:12;;;;;;;2.80;2.42;;;;;;;;;;5014020;28;20032;-75
2022/08/13 01:50:29;;;;;;;4.63;3.05;;;;;;;;;;5012777;28;20421;-74
2022/08/13 01:53:14;;;;;;;3.22;2.30;;;;;;;;;;5013702;28;20482;-74
2022/08/13 01:55:41;;;;;;;2.60;2.40;;;;;;;;;;4996709;28;20133;-75
2022/08/13 01:58:19;;;;;;;3.42;2.50;;;;;;;;;;4996684;28;20037;-74
2022/08/13 02:00:49;;;;;;;2.40;2.20;;;;;;;;;;5014098;28;20029;-75
2022/08/13 02:03:17;;;;;;;4.90;2.50;;;;;;;;;;5013668;28;20398;-75
2022/08/13 02:05:47;;;;;;;4.35;2.70;;;;;;;;;;5013544;28;20037;-75
2022/08/13 02:08:15;;;;;;;3.55;2.22;;;;;;;;;;5013923;28;20041;-74
2022/08/13 02:10:43;;;;;;;3.15;2.60;;;;;;;;;;4996047;28;20030;-75
2022/08/13 02:13:13;;;;;;;4.13;2.58;;;;;;;;;;4996117;28;20033;-74
2022/08/13 02:15:40;;;;;;;2.78;2.47;;;;;;;;;;5013620;28;20030;-74
2022/08/13 02:18:17;;;;;;;2.47;2.28;;;;;;;;;;5013423;28;20030;-74
2022/08/13 02:20:48;;;;;;;4.35;2.45;;;;;;;;;;5011531;28;20030;-74
2022/08/13 02:23:20;;;;;;;3.70;2.85;;;;;;;;;;4995635;28;20121;-74
2022/08/13 02:25:48;;;;;;;3.97;2.47;;;;;;;;;;5013260;28;20030;-74
2022/08/13 02:28:18;;;;;;;4.05;2.45;;;;;;;;;;4995825;28;20104;-74
2022/08/13 02:30:46;;;;;;;2.90;2.28;;;;;;;;;;5013092;28;20584;-74
2022/08/13 02:33:13;;;;;;;3.03;2.42;;;;;;;;;;5013117;28;20044;-74
2022/08/13 02:35:41;;;;;;;5.90;2.60;;;;;;;;;;4995620;28;20068;-74
2022/08/13 02:38:11;;;;;;;4.18;3.10;;;;;;;;;;4995832;28;20038;-74
2022/08/13 02:43:25;;;;;;;4.18;2.72;;;;;;;;;;4998290;28;20517;-74
2022/08/13 02:45:53;;;;;;;4.88;2.58;;;;;;;;;;5012982;28;20032;-74
2022/08/13 02:48:20;;;;;;;4.20;2.35;;;;;;;;;;4995431;28;20053;-74
2022/08/13 02:50:49;;;;;;;3.95;2.60;;;;;;;;;;4995000;28;20038;-75
2022/08/13 02:53:19;;;;;;;2.75;2.55;;;;;;;;;;5012878;28;20029;-75
2022/08/13 02:55:47;;;;;;;3.67;2.40;;;;;;;;;;5012988;28;20108;-75
2022/08/13 02:58:14;;;;;;;3.58;2.55;;;;;;;;;;4995514;28;20482;-75
2022/08/13 03:00:47;;;;;;;2.63;1.98;;;;;;;;;;5012839;28;20584;-74
2022/08/13 03:03:17;;;;;;;3.13;2.72;;;;;;;;;;5012503;28;20413;-74
2022/08/13 03:05:44;;;;;;;3.83;2.58;;;;;;;;;;4994888;28;20092;-74
2022/08/13 03:08:12;;;;;;;3.25;2.55;;;;;;;;;;4995090;28;20049;-74
2022/08/13 03:10:39;;;;;;;2.83;2.28;;;;;;;;;;5012522;28;20100;-73
2022/08/13 03:13:19;;;;;;;2.25;2.00;;;;;;;;;;4995010;28;20033;-74
2022/08/13 03:15:47;;;;;;;3.10;2.42;;;;;;;;;;4995094;28;20033;-74
2022/08/13 03:18:14;;;;;;;6.10;2.70;;;;;;;;;;4995081;28;20125;-75
2022/08/13 03:20:41;;;;;;;3.58;2.55;;;;;;;;;;5011194;28;20109;-74
2022/08/13 03:23:09;;;;;;;8.43;2.50;;;;;;;;;;4977989;28;20033;-74
2022/08/13 03:25:36;;;;;;;3.33;2.55;;;;;;;;;;4994662;28;20038;-73
2022/08/13 03:28:04;;;;;;;2.67;2.45;;;;;;;;;;5012256;28;20034;-74
2022/08/13 03:30:34;;;;;;;5.32;2.25;;;;;;;;;;5012058;28;20548;-74
2022/08/13 03:33:06;;;;;;;4.38;2.40;;;;;;;;;;4993681;28;20052;-74
2022/08/13 03:35:35;;;;;;;3.20;2.58;;;;;;;;;;5012520;28;20030;-73
2022/08/13 03:38:07;;;;;;;6.43;2.85;;;;;;;;;;5011643;28;20065;-74
2022/08/13 03:43:20;;;;;;;3.90;3.05;;;;;;;;;;5011907;28;20417;-73
2022/08/13 03:45:48;;;;;;;8.88;2.72;;;;;;;;;;5012062;28;20037;-73
2022/08/13 03:48:16;;;;;;;4.00;3.10;;;;;;;;;;4977977;28;20406;-73
2022/08/13 03:50:47;;;;;;;3.53;2.92;;;;;;;;;;4993195;28;20033;-74
2022/08/13 03:53:17;;;;;;;5.78;2.95;;;;;;;;;;5011616;28;20112;-74
2022/08/13 03:55:44;;;;;;;4.15;2.85;;;;;;;;;;4994925;28;20065;-74
2022/08/13 03:58:14;;;;;;;5.50;3.20;;;;;;;;;;5011590;28;20044;-74
2022/08/13 04:00:47;;;;;;;3.08;2.60;;;;;;;;;;5011726;28;20038;-74
2022/08/13 04:03:28;;;;;;;6.53;3.08;;;;;;;;;;5011510;28;20045;-74
2022/08/13 04:06:09;;;;;;;5.30;3.17;;;;;;;;;;5011488;28;20030;-74
2022/08/13 04:08:37;;;;;;;2.83;2.63;;;;;;;;;;5011607;28;20087;-74
2022/08/13 04:11:06;;;;;;;4.07;2.70;;;;;;;;;;5011445;28;20481;-74
2022/08/13 04:13:36;;;;;;;5.47;3.35;;;;;;;;;;5011369;28;20029;-74
2022/08/13 04:16:06;;;;;;;3.53;2.80;;;;;;;;;;5011537;28;20036;-74
2022/08/13 04:18:35;;;;;;;3.25;2.95;;;;;;;;;;5011497;28;20109;-74
2022/08/13 04:21:04;;;;;;;5.40;3.33;;;;;;;;;;4992848;28;20022;-74
2022/08/13 04:23:33;;;;;;;4.45;3.20;;;;;;;;;;5011223;28;20033;-73
2022/08/13 04:26:01;;;;;;;3.53;3.00;;;;;;;;;;5011459;28;20129;-74
2022/08/13 04:28:28;;;;;;;4.82;3.28;;;;;;;;;;5011284;28;20110;-74
2022/08/13 04:30:56;;;;;;;5.15;2.78;;;;;;;;;;5011230;28;20026;-74
2022/08/13 04:33:24;;;;;;;4.43;3.15;;;;;;;;;;5011003;28;20405;-74
2022/08/13 04:35:51;;;;;;;8.80;3.15;;;;;;;;;;4993485;28;20030;-74
2022/08/13 04:38:18;;;;;;;5.30;3.08;;;;;;;;;;5011046;28;20029;-73
2022/08/13 04:40:46;;;;;;;4.05;3.08;;;;;;;;;;5011273;28;20048;-74
2022/08/13 04:43:14;;;;;;;4.15;3.00;;;;;;;;;;5010922;28;20508;-74
2022/08/13 04:45:42;;;;;;;4.40;3.17;;;;;;;;;;5014771;28;20046;-74
2022/08/13 04:48:12;;;;;;;5.13;3.47;;;;;;;;;;4997617;28;20029;-74
2022/08/13 04:50:40;;;;;;;4.57;3.20;;;;;;;;;;4998044;28;20104;-74
2022/08/13 04:53:09;;;;;;;4.10;3.15;;;;;;;;;;5014661;28;20080;-74
2022/08/13 04:55:37;;;;;;;8.75;3.80;;;;;;;;;;5015094;28;20022;-74
2022/08/13 04:58:08;;;;;;;4.47;3.50;;;;;;;;;;5015041;28;20112;-74
2022/08/13 05:00:36;;;;;;;4.25;3.72;;;;;;;;;;4997201;28;20041;-74
2022/08/13 05:03:17;;;;;;;6.43;4.82;;;;;;;;;;5014524;28;20038;-74
2022/08/13 05:05:47;;;;;;;5.22;3.80;;;;;;;;;;5014682;28;20136;-74
2022/08/13 05:08:16;;;;;;;5.35;3.35;;;;;;;;;;4997128;28;20600;-74
2022/08/13 05:10:46;;;;;;;4.63;3.38;;;;;;;;;;5014748;28;20034;-74
2022/08/13 05:13:30;;;;;;;3.83;3.20;;;;;;;;;;4997101;28;20022;-74
2022/08/13 05:16:00;;;;;;;3.97;2.90;;;;;;;;;;5014357;28;20026;-74
2022/08/13 05:18:30;;;;;;;5.10;3.22;;;;;;;;;;4997300;28;20387;-74
2022/08/13 05:21:01;;;;;;;4.20;3.05;;;;;;;;;;4997226;28;20110;-74
2022/08/13 05:23:30;;;;;;;6.75;2.90;;;;;;;;;;4995559;28;20030;-74
2022/08/13 05:25:59;;;;;;;3.88;2.78;;;;;;;;;;5014471;28;20398;-75
2022/08/13 05:28:26;;;;;;;5.35;3.05;;;;;;;;;;5014287;28;20037;-74
2022/08/13 05:30:52;;;;;;;4.10;3.08;;;;;;;;;;4997077;28;20109;-74
2022/08/13 05:33:20;;;;;;;8.55;2.92;;;17.80;99.90;;;;;;5013737;28;20034;-74
2022/08/13 05:35:48;;;;;;;3.47;3.17;;;17.60;99.90;;;;;;4996723;28;20081;-74
2022/08/13 05:38:20;;;;;;;4.75;3.38;;;17.50;99.90;;;;;;5013734;28;20029;-74
2022/08/13 05:40:46;;;;;;;6.00;3.33;;;17.50;99.90;;;;;;4982012;28;20029;-74
2022/08/13 05:43:16;;;;;;;5.53;3.60;;;17.50;99.90;;;;;;5013838;28;20030;-71
2022/08/13 05:45:42;;;;;;;3.53;3.20;;;17.40;99.90;;;;;;4996710;28;20049;-71
2022/08/13 05:48:09;;;;;;;4.00;3.05;;;17.50;99.90;;;;;;5014059;28;20521;-70
2022/08/13 05:50:35;;;;;;;6.70;3.60;;;17.50;99.90;;;;;;4996522;28;20390;-70
2022/08/13 05:53:09;;;;;;;9.35;3.55;;;17.50;99.90;;;;;;5013267;28;20037;-70
2022/08/13 05:55:37;;;;;;;5.65;3.30;;;17.50;99.90;;;;;;4995220;28;20393;-71
2022/08/13 05:58:05;;;;;;;4.45;3.20;;;17.60;99.90;;;;;;4987393;28;20486;-70
2022/08/13 06:03:31;;;;;;;5.90;3.53;;;17.60;99.90;;;;;;5005273;28;20482;-70
2022/08/13 06:05:59;;;;;;;4.78;3.05;;;17.60;99.90;;;;;;4994385;28;20042;-70
2022/08/13 06:08:29;;;;;;;4.07;2.80;;;17.60;99.90;;;;;;4977093;28;20437;-71
2022/08/13 06:11:02;;;;;;;4.45;3.20;;;17.70;99.90;;;;;;5004105;28;20031;-71
2022/08/13 06:13:28;;;;;;;2.95;2.67;;;17.70;99.90;;;;;;5011093;28;20040;-71
2022/08/13 06:15:58;;;;;;;4.07;2.90;;;17.80;99.90;;;;;;5009039;28;20545;-71
2022/08/13 06:18:29;;;;;;;6.80;3.22;;;17.80;99.90;;;;;;4991172;28;20426;-71
2022/08/13 06:20:56;;;;;;;8.15;3.00;;;17.90;99.90;;;;;;5006788;28;20061;-71
2022/08/13 06:23:26;;;;;;;;;;;18.00;99.90;;;;;;5015386;28;20040;-71
2022/08/13 06:25:53;;;;;;;4.35;3.35;;;18.10;99.90;;;;;;5016210;28;19932;-71
2022/08/13 06:28:26;;;;;;;4.95;3.15;;;18.10;99.90;;;;;;4990502;28;20104;-71
2022/08/13 06:30:55;;;;;;;4.28;3.10;;;18.20;99.90;;;;;;4993989;28;20371;-71
2022/08/13 06:33:22;;;;;;;4.15;3.00;;;18.30;99.90;;;;;;4994725;28;21153;-71
2022/08/13 06:35:58;;;;;;;6.07;3.00;;;18.40;99.90;;;;;;5013268;28;20091;-71
2022/08/13 06:38:41;;;;;;;3.55;2.80;;;18.50;99.90;;;;;;4995979;28;20563;-78
2022/08/13 06:41:08;;;;;;;3.88;2.47;;;18.50;99.90;;;;;;4997240;28;20026;-78
2022/08/13 06:43:47;;;;;;;4.38;3.00;;;18.60;99.90;;;;;;4995895;28;20033;-77
2022/08/13 06:46:13;;;;;;;6.00;3.28;;;18.70;99.90;;;;;;4996502;28;20038;-77
2022/08/13 06:48:42;;;;;;;4.63;2.92;;;18.80;99.90;;;;;;5013740;28;20034;-78
2022/08/13 06:51:11;;;;;;;7.20;3.00;;;18.80;99.90;;;;;;4996650;28;20536;-78
2022/08/13 06:53:38;;;;;;;6.28;2.60;;;18.90;99.90;;;;;;5012129;28;20037;-79
2022/08/13 06:56:11;;;;;;;4.15;2.78;;;19.00;99.90;;;;;;4997055;28;20433;-79
2022/08/13 06:58:37;;;;;;;5.07;2.90;;;19.00;99.90;;;;;;4997437;28;20041;-78
2022/08/13 07:01:03;;;;;;;6.25;3.15;;;19.10;99.90;;;;;;5014750;28;20026;-76
2022/08/13 07:03:32;;;;;;;3.78;2.60;;;19.20;99.90;;;;;;5014281;28;20038;-77
2022/08/13 07:05:58;;;;;;;4.18;3.58;;;19.20;99.90;;;;;;4982919;28;20030;-76
2022/08/13 07:08:29;;;;;;;3.73;2.90;;;19.30;99.90;;;;;;4998314;28;20045;-76
2022/08/13 07:13:43;;;;;;;5.47;2.63;;;19.50;99.90;;;;;;5012593;28;20054;-76
2022/08/13 07:16:16;;;;;;;6.45;3.47;;;19.50;99.90;;;;;;5012818;28;20048;-76
2022/08/13 07:18:42;;;;;;;3.97;3.05;;;19.60;99.90;;;;;;5013163;28;20092;-77
2022/08/13 07:21:10;;;;;;;3.65;3.00;;;19.70;99.90;;;;;;5012677;28;20033;-75
2022/08/13 07:23:40;;;;;;;3.05;2.75;;;19.80;99.90;;;;;;4974424;28;20058;-75
2022/08/13 07:26:06;;;;;;;3.42;2.55;;;19.80;99.90;;;;;;4992254;28;20038;-76
2022/08/13 07:28:33;;;;;;;4.72;3.47;;;19.90;99.90;;;;;;4991305;28;20060;-75
2022/08/13 07:31:00;;;;;;;3.80;2.70;;;20.00;99.90;;;;;;4975204;28;20398;-74
2022/08/13 07:33:26;;;;;;;5.90;3.08;;;20.10;99.90;;;;;;4991188;28;20418;-75
2022/08/13 07:35:52;;;;;;;3.83;3.10;;;20.20;99.90;;;;;;4992680;28;20034;-74
2022/08/13 07:38:17;;;;;;;3.67;2.37;;;20.30;99.90;;;;;;5000911;28;20284;-75
2022/08/13 07:40:45;;;;;;;6.50;3.77;;;20.40;99.90;;;;;;5012290;28;20088;-75
2022/08/13 07:43:12;;;;;;;4.53;2.90;;;20.40;99.90;;;;;;4994333;28;20041;-74
2022/08/13 07:45:39;;;;;;;3.05;2.70;;;20.50;99.90;;;;;;4994653;28;20029;-75
2022/08/13 07:48:05;;;;;;;3.40;2.80;;;20.60;99.90;;;;;;4994883;28;20061;-74
2022/08/13 07:50:32;;;;;;;6.40;3.42;;;20.70;99.90;;;;;;4994886;28;20068;-75
2022/08/13 07:52:58;;;;;;;6.00;2.80;;;20.70;99.90;;;;;;4994178;28;20034;-75
2022/08/13 07:55:25;;;;;;;6.67;3.10;;;20.80;99.90;;;;;;4977216;28;20048;-75
2022/08/13 07:57:51;;;;;;;4.65;2.85;;;20.90;99.90;;;;;;4994274;28;20593;-75
2022/08/13 08:00:26;;;;;;;5.25;3.05;;;21.00;99.90;;;;;;4974995;28;20534;-75
2022/08/13 08:03:02;;;;;;;3.95;3.50;;;21.10;99.90;;;;;;4976155;28;20033;-75
2022/08/13 08:05:31;;;;;;;3.33;2.67;;;21.20;99.90;;;;;;4977881;28;20029;-75
2022/08/13 08:07:58;;;;;;;4.65;3.20;;;21.30;99.90;;;;;;4993867;28;20102;-76
2022/08/13 08:10:24;;;;;;;3.05;2.50;;;21.40;99.90;;;;;;4994146;28;20026;-76
2022/08/13 08:12:50;;;;;;;5.30;3.10;;;21.40;99.90;;;;;;4993909;28;20532;-76
2022/08/13 08:15:16;;;;;;;4.13;3.23;;;21.50;99.90;;;;;;4994379;28;20108;-75
2022/08/13 08:17:42;;;;;;;3.10;2.10;;;21.60;99.90;;;;;;5011513;28;20022;-75
2022/08/13 08:20:10;;;;;;;6.75;3.08;;;21.60;99.90;;;;;;4993751;28;20092;-75
2022/08/13 08:22:35;;;;;;;4.05;2.55;;;21.60;99.90;;;;;;4993252;28;20065;-75
2022/08/13 08:25:03;;;;;;;4.53;2.83;;;21.70;99.90;;;;;;4977539;28;20465;-76
2022/08/13 08:27:32;;;;;;;5.20;2.58;;;21.80;99.90;;;;;;4994484;28;20033;-75
2022/08/13 08:30:00;;;;;;;3.13;2.78;;;21.90;99.90;;;;;;5011882;28;20026;-76
2022/08/13 08:32:26;;;;;;;4.72;3.55;;;22.00;99.90;;;;;;4993569;28;20038;-75
2022/08/13 08:34:52;;;;;;;4.07;2.95;;;22.20;99.90;;;;;;4991075;28;20050;-77
2022/08/13 08:42:54;;;;;;;3.55;2.67;;;22.60;99.90;;;;;;4990782;28;20041;-77
2022/08/13 08:45:21;;;;;;;2.95;2.65;;;22.80;99.90;;;;;;4990790;28;20053;-77
2022/08/13 08:47:48;;;;;;;3.22;2.92;;;22.90;99.90;;;;;;4974357;28;20453;-77
2022/08/13 08:50:17;;;;;;;6.25;3.20;;;23.00;99.90;;;;;;4990802;28;20031;-78
2022/08/13 08:55:27;;;;;;;2.97;2.75;;;23.20;98.50;;;;;;4997166;28;20033;-77
2022/08/13 08:57:53;;;;;;;6.17;2.80;;;23.30;99.90;;;;;;5011353;28;20034;-78
2022/08/13 09:00:20;;;;;;;3.57;2.93;;;23.40;99.90;;;;;;4993569;28;20110;-77
2022/08/13 09:02:50;;;;;;;3.85;2.67;;;23.60;99.20;;;;;;4989471;28;20625;-78
2022/08/13 09:05:20;;;;;;;3.25;2.70;;;23.70;99.90;;;;;;5004069;28;20440;-77
2022/08/13 09:07:46;;;;;;;3.47;2.70;;;23.70;99.90;;;;;;4977769;28;20025;-77
2022/08/13 09:10:12;;;;;;;13.43;3.92;;;23.80;99.90;;;;;;4977666;28;20080;-78
2022/08/13 09:12:42;;;;;;;5.20;2.72;;;23.80;98.40;;;;;;5010911;28;20125;-78
2022/08/13 09:15:12;;;;;;;3.97;2.92;;;23.80;98.90;;;;;;4978273;28;20038;-79
2022/08/13 09:17:38;;;;;;;5.53;2.75;;;23.80;99.10;;;;;;4977364;28;20026;-78
2022/08/13 09:20:07;;;;;;;2.40;2.13;;;23.80;99.90;;;;;;4993860;28;20026;-78
2022/08/13 09:22:33;;;;;;;3.75;2.55;;;23.80;96.70;;;;;;5009931;28;20030;-78
2022/08/13 09:24:59;;;;;;;4.68;2.72;;;24.10;95.30;;;;;;4993578;28;20569;-78
2022/08/13 09:27:28;;;;;;;2.42;2.20;;;24.30;93.50;;;;;;4977145;28;20042;-78
2022/08/13 09:29:54;;;;;;;2.35;2.15;;;24.60;91.90;;;;;;4994258;28;20092;-79
2022/08/13 09:32:21;;;;;;;4.07;2.50;;;24.80;91.80;;;;;;5014614;28;20030;-77
2022/08/13 09:34:47;;;;;;;2.63;1.90;;;24.90;90.90;;;;;;4997483;28;20036;-78
2022/08/13 09:37:13;;;;;;;4.07;2.27;;;25.10;91.20;;;;;;4996559;28;20417;-75
2022/08/13 09:39:48;;;;;;;4.05;2.35;;;25.20;89.50;;;;;;4981527;28;20544;-76
2022/08/13 09:42:24;;;;;;;5.57;2.03;;;25.40;89.00;;;;;;4998724;28;20044;-76
2022/08/13 09:44:58;;;;;;;4.43;1.92;;;25.50;86.10;;;;;;5015127;28;20040;-76
2022/08/13 09:47:24;;;;;;;2.22;2.03;;;25.50;87.00;;;;;;4997300;28;20138;-75
2022/08/13 09:49:50;;;;;;;2.67;2.08;;;25.60;85.40;;;;;;4993401;28;20127;-79
2022/08/13 09:52:16;;;;;;;;;;;25.70;84.30;;;;;;4979772;28;20030;-76
2022/08/13 09:54:42;;;;;;;4.13;2.30;;;25.70;84.30;;;;;;5013899;28;20000;-76
2022/08/13 09:57:08;;;;;;;;;;;25.70;84.70;;;;;;4995447;28;20041;-78
2022/08/13 09:59:34;;;;;;;4.50;2.30;;;25.80;85.00;;;;;;5013886;28;20293;-79
2022/08/13 10:02:05;;;;;;;2.53;1.90;;;25.90;84.90;;;;;;5013934;28;20026;-77
2022/08/13 10:04:32;;;;;;;2.28;2.08;;;25.90;86.10;;;;;;4996993;28;20513;-78
2022/08/13 10:06:58;;;;;;;5.50;2.15;;;26.00;84.70;;;;;;4996284;28;20501;-77
2022/08/13 10:09:27;;;;;;;;;;;26.00;87.10;;;;;;4980843;28;20026;-79
2022/08/13 10:11:53;;;;;;;2.50;2.05;;;26.10;86.60;;;;;;5013557;28;19924;-78
2022/08/13 10:14:20;;;;;;;2.67;2.25;;;26.10;86.30;;;;;;5013536;28;20040;-78
2022/08/13 10:16:45;;;;;;;3.25;2.10;;;26.20;85.90;;;;;;4980109;28;20375;-77
2022/08/13 10:19:11;;;;;;;3.72;2.83;;;26.20;85.80;;;;;;5013695;28;20041;-78
2022/08/13 10:21:37;;;;;;;2.10;1.90;;;26.30;84.90;;;;;;4996113;28;20037;-79
2022/08/13 10:24:04;;;;;;;3.30;2.20;;;26.40;84.40;;;;;;4994836;28;20026;-78
2022/08/13 10:26:31;;;;;;;3.22;1.83;;;26.50;84.60;;;;;;5012418;28;20037;-77
2022/08/13 10:28:56;;;;;;;2.13;1.70;;;26.60;81.10;;;;;;4996085;28;20032;-77
2022/08/13 10:31:27;;;;;;;4.97;1.98;;;26.60;79.40;;;;;;4995971;28;20034;-78
2022/08/13 10:33:58;;;;;;;2.67;1.85;;;26.60;79.20;;;;;;4996924;28;20386;-78
2022/08/13 10:36:27;;;;;;;3.00;2.22;;;26.50;80.40;;;;;;4996676;28;20504;-78
2022/08/13 10:38:55;;;;;;;1.73;1.63;;;26.40;87.50;;;;;;4995994;28;20045;-79
2022/08/13 10:41:21;;;;;;;4.10;2.13;;;26.30;91.40;;;;;;4995835;28;20026;-80
2022/08/13 10:43:48;;;;;;;2.53;2.10;;;26.20;91.10;;;;;;5012834;28;20030;-78
2022/08/13 10:46:16;;;;;;;3.42;2.15;;;26.10;89.50;;;;;;4995860;28;20116;-78
2022/08/13 10:48:43;;;;;;;4.45;2.70;;;26.30;83.90;;;;;;4995831;28;20037;-78
2022/08/13 10:51:09;;;;;;;2.40;2.20;;;26.40;82.70;;;;;;4995713;28;20105;-77
2022/08/13 10:56:18;;;;;;;4.93;2.97;;;26.50;81.00;;;;;;4998306;28;20127;-77
2022/08/13 10:58:44;;;;;;;4.75;2.10;;;26.70;82.90;;;;;;4994729;28;20053;-78
2022/08/13 11:01:10;;;;;;;3.05;2.42;;;26.90;82.10;;;;;;4995403;28;20034;-78
2022/08/13 11:03:36;;;;;;;4.13;2.60;;;27.10;80.80;;;;;;5012933;28;20104;-79
2022/08/13 11:06:04;;;;;;;4.28;2.22;;;27.20;81.30;;;;;;4995374;28;20084;-78
2022/08/13 11:08:34;;;;;;;3.67;2.28;;;27.30;81.20;;;;;;4995357;28;20026;-79
2022/08/13 11:11:00;;;;;;;3.33;2.20;;;27.40;82.00;;;;;;4995825;28;20041;-78
2022/08/13 11:13:26;;;;;;;5.05;2.20;;;27.50;81.70;;;;;;4978131;28;20485;-78
2022/08/13 11:15:52;;;;;;;3.15;2.33;;;27.60;78.00;;;;;;4994995;28;20034;-78
2022/08/13 11:18:18;;;;;;;3.33;2.45;;;27.80;75.70;;;;;;5012567;28;20038;-79
2022/08/13 11:21:02;;;;;;;;;;;27.80;76.00;;;;;;4995504;28;20553;-78
2022/08/13 11:23:31;;;;;;;5.35;2.10;;;27.90;78.10;;;;;;5010962;28;19913;-80
2022/08/13 11:25:56;;;;;;;16.60;2.55;;;28.00;79.90;;;;;;4994946;28;20485;-78
2022/08/13 11:28:22;;;;;;;4.13;2.17;;;28.20;77.80;;;;;;4994780;28;20036;-80
2022/08/13 11:30:49;;;;;;;2.75;1.75;;;28.40;75.60;;;;;;4995263;28;20038;-80
2022/08/13 11:33:14;;;;;;;2.15;1.88;;;28.50;74.90;;;;;;4995836;28;20456;-80
2022/08/13 11:35:42;;;;;;;2.47;2.15;;;28.60;77.10;;;;;;4996037;28;20097;-80
2022/08/13 11:38:13;;;;;;;4.35;2.47;;;28.70;78.60;;;;;;4994371;28;20505;-79
2022/08/13 11:40:39;;;;;;;3.58;2.72;;;28.60;78.30;;;;;;4995480;28;20034;-80
2022/08/13 11:43:04;;;;;;;3.47;2.28;;;28.70;78.70;;;;;;5012147;28;20034;-80
2022/08/13 11:45:30;;;;;;;4.43;2.35;;;28.80;78.50;;;;;;5012308;28;20657;-79
2022/08/13 11:47:56;;;;;;;2.67;2.47;;;28.80;77.00;;;;;;5012192;28;20034;-79
2022/08/13 11:50:22;;;;;;;3.15;1.67;;;28.90;77.50;;;;;;5012374;28;20084;-79
2022/08/13 11:52:48;;;;;;;2.42;2.20;;;29.10;73.40;;;;;;4994435;28;20041;-79
2022/08/13 11:55:13;;;;;;;2.20;1.95;;;29.20;73.30;;;;;;5011165;28;20037;-79
2022/08/13 11:57:39;;;;;;;2.40;2.00;;;29.50;75.70;;;;;;4994654;28;20104;-80
2022/08/13 12:00:06;;;;;;;3.00;1.98;;;29.60;75.10;;;;;;5010596;28;20080;-78
2022/08/13 12:02:32;;;;;;;2.17;1.98;;;29.60;71.50;;;;;;5011975;28;20025;-79
2022/08/13 12:04:58;;;;;;;2.35;2.13;;;29.50;71.10;;;;;;4994071;28;20026;-79
2022/08/13 12:07:24;;;;;;;4.22;2.05;;;29.30;75.50;;;;;;4994382;28;20115;-79
2022/08/13 12:09:50;;;;;;;;;;;29.20;74.40;;;;;;4994912;28;20091;-79
2022/08/13 12:12:15;;;;;;;3.30;2.05;;;29.20;73.00;;;;;;4994172;28;20374;-79
2022/08/13 12:14:41;;;;;;;3.10;2.05;;;29.20;73.50;;;;;;4993756;28;20026;-80
2022/08/13 12:17:07;;;;;;;3.65;2.45;;;29.40;69.80;;;;;;5011602;28;20029;-79
2022/08/13 12:19:33;;;;;;;2.80;2.55;;;29.50;73.30;;;;;;4994306;28;20444;-79
2022/08/13 12:22:00;;;;;;;;;;;29.40;74.30;;;;;;5011781;28;20041;-79
2022/08/13 12:24:29;;;;;;;1.92;1.83;;;29.30;75.20;;;;;;5010131;28;20262;-80
2022/08/13 12:26:55;;;;;;;2.55;2.25;;;29.30;75.60;;;;;;4993871;28;20064;-79
2022/08/13 12:29:20;;;;;;;4.25;2.38;;;29.30;72.50;;;;;;5011761;28;20030;-79
2022/08/13 12:31:46;;;;;;;3.60;2.20;;;29.50;70.70;;;;;;5011577;28;20502;-79
2022/08/13 12:34:12;;;;;;;2.72;2.42;;;29.70;69.00;;;;;;5011165;28;20025;-79
2022/08/13 12:36:37;;;;;;;3.00;2.80;;;29.90;69.60;;;;;;5011489;28;20058;-80
2022/08/13 12:39:03;;;;;;;2.63;2.40;;;30.20;69.40;;;;;;4993035;28;20041;-78
2022/08/13 12:41:29;;;;;;;2.22;2.03;;;30.40;71.80;;;;;;4995011;28;20115;-78
2022/08/13 12:43:55;;;;;;;;;;;30.70;72.40;;;;;;4993927;28;20030;-77
2022/08/13 12:46:21;;;;;;;2.38;2.17;;;31.00;72.70;;;;;;5011277;28;20008;-78
2022/08/13 12:48:47;;;;;;;2.70;2.50;;;31.30;69.20;;;;;;5011250;28;20030;-78
2022/08/13 12:51:12;;;;;;;2.95;1.95;;;31.70;70.70;;;;;;5011124;28;20034;-78
2022/08/13 12:53:38;;;;;;;2.13;1.90;;;32.10;70.90;;;;;;5010918;28;20494;-79
2022/08/13 12:56:04;;;;;;;4.15;2.00;;;32.40;68.60;;;;;;5010942;28;20838;-78
2022/08/13 12:58:30;;;;;;;3.10;2.20;;;32.60;65.60;;;;;;4993722;28;20037;-77
2022/08/13 13:00:56;;;;;;;2.92;2.58;;;32.50;68.20;;;;;;5004318;28;20145;-77
2022/08/13 13:03:23;;;;;;;1.95;1.85;;;32.40;68.20;;;;;;4973699;28;20041;-79
2022/08/13 13:05:50;;;;;;;3.38;1.88;;;32.20;69.20;;;;;;4975943;28;20037;-74
2022/08/13 13:08:18;;;;;;;8.65;2.90;;;32.10;67.20;;;;;;4983929;28;20072;-75
2022/08/13 13:10:45;;;;;;;2.80;2.50;;;32.20;48.90;;;;;;5005504;28;20029;-74
2022/08/13 13:13:12;;;;;;;5.68;2.63;;;32.50;44.90;;;;;;5014880;28;20562;-78
2022/08/13 13:15:39;;;;;;;4.03;2.40;;;32.70;49.00;;;;;;5002029;28;20034;-78
2022/08/13 13:18:20;;;;;;;3.47;2.20;;;33.20;48.50;;;;;;4980201;28;20034;-78
2022/08/13 13:20:47;;;;;;;2.17;1.98;;;33.60;47.20;;;;;;4962250;28;20466;-77
2022/08/13 13:23:18;;;;;;;2.10;1.80;;;34.00;43.70;;;;;;4985066;28;20034;-78
2022/08/13 13:25:44;;;;;;;2.40;2.17;;;34.00;42.10;;;;;;5002442;28;20037;-75
2022/08/13 13:28:20;;;;;;;3.90;2.38;;;34.20;44.60;;;;;;5008333;28;20034;-75
2022/08/13 13:30:47;;;;;;;1.98;1.88;;;34.50;47.10;;;;;;4993603;28;20049;-75
2022/08/13 13:33:13;;;;;;;2.30;2.10;;;34.60;41.00;;;;;;4993065;28;20084;-75
2022/08/13 13:35:40;;;;;;;2.05;1.85;;;34.30;40.60;;;;;;4994701;28;20077;-75
2022/08/13 13:38:07;;;;;;;1.90;1.80;;;34.10;40.90;;;;;;4993294;28;20026;-75
2022/08/13 13:40:52;;;;;;;1.88;1.75;;;34.00;40.70;;;;;;4992664;28;20034;-75
2022/08/13 13:43:24;;;;;;;2.17;1.98;;;34.00;40.70;;;;;;4993091;28;20084;-75
2022/08/13 13:45:50;;;;;;;2.78;1.67;;;34.40;45.30;;;;;;4994592;28;20034;-76
2022/08/13 13:48:23;;;;;;;2.33;2.03;;;34.70;40.70;;;;;;4994304;28;20038;-76
2022/08/13 13:50:50;;;;;;;2.58;2.28;;;34.90;38.50;;;;;;4977114;28;20683;-75
2022/08/13 13:53:16;;;;;;;2.38;1.98;;;35.10;39.60;;;;;;4992960;28;20426;-75
2022/08/13 13:55:42;;;;;;;2.40;2.17;;;35.40;40.10;;;;;;4995576;28;20033;-75